Stations météo

Publicité
Bourg-St-Maurice, France (7497): Température de l'air & dewpoint: 15.06.2018 01:00:00 - 21.06.2018 01:00:00 (CEST)Bourg-St-Maurice, France (7497): Température de l'air 5cm: 15.06.2018 01:00:00 - 21.06.2018 01:00:00 (CEST)Bourg-St-Maurice, France (7497): Température de l'air -20cm & Température de l'air -100cm: 15.06.2018 01:00:00 - 21.06.2018 01:00:00 (CEST)Bourg-St-Maurice, France (7497): Vitesse du vent & gusts: 15.06.2018 01:00:00 - 21.06.2018 01:00:00 (CEST)Bourg-St-Maurice, France (7497): Direction du vent: 15.06.2018 01:00:00 - 21.06.2018 01:00:00 (CEST)Bourg-St-Maurice, France (7497): Quantités de précipitations: 15.06.2018 01:00:00 - 21.06.2018 01:00:00 (CEST)
Date & Time tt [°C] td [°C] tt 5cm [°C] tt -20cm [°C] tt -100cm [°C] ff [km/h] ff [knt] fx [km/h] fx [knt] dd rr [mm]
21.06.2018 01:00:00 20,5 11,7 19,0 25,2 18,4 5 3 16 9 NW 0,0
21.06.2018 00:00:00 20,9 11,5 18,5 25,4 18,4 3 1 14 7 WNW 0,0
20.06.2018 23:00:00 21,7 11,1 20,4 25,5 18,4 3 2 16 9 W 0,0
20.06.2018 22:00:00 22,9 10,7 20,8 25,6 18,4 8 5 16 9 WNW 0,0
20.06.2018 21:00:00 25,2 10,6 23,2 25,6 18,4 4 2 18 10 SSW 0,0
20.06.2018 20:00:00 27,3 10,9 27,1 25,6 18,4 3 2 23 12 W 0,0
20.06.2018 19:00:00 28,9 10,1 29,7 25,4 18,3 6 4 17 9 WSW 0,0
20.06.2018 18:00:00 29,1 9,2 29,6 25,1 18,3 8 5 27 15 NW 0,0
20.06.2018 17:00:00 30,6 11,0 29,2 24,9 18,3 6 3 19 10 SE 0,0
20.06.2018 16:00:00 29,3 9,4 29,2 24,5 18,3 4 2 24 13 N 0,0
20.06.2018 15:00:00 29,5 9,1 31,1 24,1 18,3 6 3 27 15 N 0,0
20.06.2018 14:00:00 29,9 8,9 29,0 23,7 18,3 15 8 29 16 NNW 0,0
20.06.2018 13:00:00 29,9 9,9 36,1 23,3 18,3 10 6 20 11 SSE 0,0
20.06.2018 12:00:00 27,9 11,9 33,6 23,0 18,2 6 4 14 8 S 0,0
20.06.2018 11:00:00 25,0 12,9 30,7 22,9 18,2 4 2 9 5 SSE 0,0
20.06.2018 10:00:00 22,2 12,2 26,3 22,9 18,2 2 1 6 4 SSE 0,0
20.06.2018 09:00:00 19,8 11,3 22,2 23,0 18,2 3 1 8 4 ESE 0,0
20.06.2018 08:00:00 17,1 12,0 13,4 23,2 18,2 5 3 9 5 N 0,0
20.06.2018 07:00:00 13,9 11,6 12,2 23,4 18,2 3 2 6 4 SSW 0,0
20.06.2018 06:00:00 13,8 11,3 11,8 23,7 18,2 2 1 5 3 NNE 0,0
20.06.2018 05:00:00 14,5 11,6 12,3 23,9 18,2 0 0 6 3 N 0,0
20.06.2018 04:00:00 15,0 11,8 13,0 24,1 18,1 3 2 7 4 NW 0,0
20.06.2018 03:00:00 15,8 12,0 13,7 24,3 18,2 3 2 6 3 NNW 0,0
20.06.2018 02:00:00 16,3 12,3 14,1 24,5 18,1 2 1 8 4 NNW 0,0
20.06.2018 01:00:00 17,5 12,2 15,4 24,7 18,2 3 1 8 4 NNW 0,0
20.06.2018 00:00:00 18,7 12,4 16,8 24,9 18,1 3 1 10 6 NNW 0,0
19.06.2018 23:00:00 19,6 12,8 18,0 25,0 18,1 5 3 10 6 WNW 0,0
19.06.2018 22:00:00 20,3 13,3 18,8 25,1 18,1 5 3 9 5 W 0,0
19.06.2018 21:00:00 22,1 13,4 20,7 25,2 18,1 4 2 11 6 W 0,0
19.06.2018 20:00:00 24,3 15,0 22,9 25,1 18,1 5 3 18 10 W 0,0
19.06.2018 19:00:00 26,7 14,1 27,1 24,9 18,1 8 4 26 14 S 0,0
19.06.2018 18:00:00 27,7 14,3 28,3 24,7 18,1 8 5 27 15 S 0,0
19.06.2018 17:00:00 28,5 13,6 28,2 24,3 18,1 10 5 26 14 S 0,0
19.06.2018 16:00:00 28,3 11,8 29,1 23,9 18,0 12 6 28 15 S 0,0
19.06.2018 15:00:00 28,3 11,8 32,8 23,4 18,0 10 5 28 15 S 0,0
19.06.2018 14:00:00 27,5 9,3 33,2 22,9 18,1 10 5 20 11 S 0,0
19.06.2018 13:00:00 25,8 10,0 31,0 22,5 18,0 7 4 16 9 SW 0,0
19.06.2018 12:00:00 24,0 11,0 30,3 22,2 18,0 8 4 17 9 S 0,0
19.06.2018 11:00:00 21,9 11,6 28,1 22,2 18,0 5 3 14 7 S 0,0
19.06.2018 10:00:00 20,0 11,2 24,9 22,2 18,0 3 2 9 5 SSE 0,0
19.06.2018 09:00:00 17,8 10,9 20,7 22,3 18,0 4 2 7 4 S 0,0
19.06.2018 08:00:00 15,7 10,0 12,3 22,5 18,0 2 1 7 4 E 0,0
19.06.2018 07:00:00 12,5 9,9 10,5 22,7 18,0 3 1 6 3 NNW 0,0
19.06.2018 06:00:00 12,2 9,6 10,5 22,9 18,0 3 1 6 4 NW 0,0
19.06.2018 05:00:00 12,8 9,8 11,1 23,2 17,9 2 1 5 3 W 0,0
19.06.2018 04:00:00 13,8 9,8 11,7 23,4 17,9 0 0 4 2 N 0,0
19.06.2018 03:00:00 14,4 10,2 12,9 23,6 17,9 0 0 5 3 N 0,0
19.06.2018 02:00:00 14,9 10,3 12,7 23,8 17,9 2 1 5 3 NNW 0,0
19.06.2018 01:00:00 15,5 10,0 13,5 24,0 17,9 0 0 14 8 N 0,0
19.06.2018 00:00:00 16,5 10,3 15,1 24,2 17,9 5 3 13 7 WNW 0,0
18.06.2018 23:00:00 17,4 10,5 16,2 24,4 17,9 6 3 10 5 WNW 0,0
18.06.2018 22:00:00 18,6 10,7 16,8 24,6 17,9 3 2 10 5 W 0,0
18.06.2018 21:00:00 21,3 11,0 19,1 24,6 17,9 4 2 21 11 ESE 0,0
18.06.2018 20:00:00 23,2 10,3 21,7 24,6 17,9 11 6 24 13 ESE 0,0
18.06.2018 19:00:00 25,5 10,5 26,1 24,4 17,9 6 3 27 15 S 0,0
18.06.2018 18:00:00 25,9 11,6 26,4 24,1 17,9 6 4 25 13 SSW 0,0
18.06.2018 17:00:00 26,3 11,2 25,8 23,8 17,9 9 5 26 14 S 0,0
18.06.2018 16:00:00 26,9 12,2 28,3 23,4 17,9 8 5 26 14 S 0,0
18.06.2018 15:00:00 26,6 11,5 31,7 22,9 17,8 9 5 26 14 S 0,0
18.06.2018 14:00:00 26,1 11,8 30,8 22,4 17,8 11 6 24 13 S 0,0
18.06.2018 13:00:00 24,3 9,5 30,5 21,9 17,8 10 6 19 10 S 0,0
18.06.2018 12:00:00 23,0 9,7 29,1 21,6 17,8 6 3 19 11 SSW 0,0
18.06.2018 11:00:00 20,9 11,5 26,1 21,5 17,8 5 3 10 6 S 0,0
18.06.2018 10:00:00 18,6 11,7 17,3 21,6 17,8 4 2 10 5 ESE 0,0
18.06.2018 09:00:00 15,7 11,9 15,4 21,7 17,8 2 1 8 5 E 0,0
18.06.2018 08:00:00 15,1 11,7 14,4 21,8 17,8 2 1 9 5 S 0,0
18.06.2018 07:00:00 14,8 11,6 14,2 21,9 17,8 4 2 11 6 SSW 0,0
18.06.2018 06:00:00 14,9 11,5 14,1 22,1 17,8 0 0 8 4 N 0,0
18.06.2018 05:00:00 15,1 11,5 14,3 22,2 17,7 3 2 11 6 SW 0,0
18.06.2018 04:00:00 15,4 11,4 14,6 22,4 17,8 2 1 8 4 SSW 0,0
18.06.2018 03:00:00 15,6 11,4 14,7 22,5 17,7 2 1 9 5 SSE 0,0
18.06.2018 02:00:00 15,4 11,4 13,9 22,7 17,8 3 1 6 4 W 0,0
18.06.2018 01:00:00 15,6 11,2 14,3 22,9 17,7 3 2 10 5 W 0,0
18.06.2018 00:00:00 16,1 11,5 15,0 23,1 17,7 4 2 10 6 W 0,0
17.06.2018 23:00:00 16,9 11,4 15,4 23,2 17,7 4 2 12 6 W 0,0
17.06.2018 22:00:00 18,7 11,5 17,3 23,3 17,7 3 2 16 9 W 0,0
17.06.2018 21:00:00 20,2 11,1 18,7 23,3 17,7 4 2 18 10 SSW 0,0
17.06.2018 20:00:00 22,1 10,3 21,8 23,3 17,7 9 5 24 13 SSE 0,0
17.06.2018 19:00:00 23,2 10,3 23,3 23,3 17,7 11 6 25 13 NNE 0,0
17.06.2018 18:00:00 23,3 11,0 23,8 23,2 17,7 4 2 26 14 SW 0,0
17.06.2018 17:00:00 25,0 10,5 25,0 23,0 17,7 12 6 31 17 NE 0,0
17.06.2018 16:00:00 25,3 10,3 25,5 22,7 17,7 9 5 24 13 S 0,0
17.06.2018 15:00:00 25,2 10,3 24,0 22,4 17,7 7 4 20 11 S 0,0
17.06.2018 14:00:00 24,5 10,0 25,2 22,0 17,7 7 4 22 12 S 0,0
17.06.2018 13:00:00 24,6 10,1 27,3 21,5 17,7 7 4 17 9 SSE 0,0
17.06.2018 12:00:00 23,1 11,8 24,6 21,3 17,6 9 5 19 10 S 0,0
17.06.2018 11:00:00 22,0 12,0 22,0 21,1 17,6 6 3 18 10 SSW 0,0
17.06.2018 10:00:00 19,8 12,1 22,5 21,0 17,6 6 3 17 9 SW 0,0
17.06.2018 09:00:00 18,9 11,2 20,7 21,1 17,6 4 2 8 5 ESE 0,0
17.06.2018 08:00:00 16,4 11,5 13,9 21,2 17,6 2 1 7 4 ENE 0,0
17.06.2018 07:00:00 13,8 11,1 12,7 21,4 17,6 3 2 7 4 SSW 0,0
17.06.2018 06:00:00 14,2 11,0 13,2 21,5 17,6 3 1 5 3 N 0,0
17.06.2018 05:00:00 14,7 10,9 13,8 21,7 17,6 0 0 8 4 N 0,0
17.06.2018 04:00:00 14,3 10,7 12,2 21,9 17,6 0 0 4 2 N 0,0
17.06.2018 03:00:00 14,5 10,3 12,5 22,1 17,6 0 0 12 6 N 0,0
17.06.2018 02:00:00 15,3 10,5 13,2 22,3 17,6 5 3 10 5 WNW 0,0
17.06.2018 01:00:00 16,3 10,6 14,6 22,4 17,6 0 0 12 6 N 0,0
17.06.2018 00:00:00 16,7 10,3 14,9 22,6 17,6 7 4 14 7 NW 0,0
16.06.2018 23:00:00 17,5 10,6 16,1 22,8 17,5 3 2 12 6 W 0,0
16.06.2018 22:00:00 18,6 10,9 17,2 22,9 17,6 4 2 17 9 W 0,0
16.06.2018 21:00:00 19,7 10,9 18,7 23,0 17,5 6 3 13 7 W 0,0
16.06.2018 20:00:00 20,7 12,1 19,0 23,0 17,5 6 4 18 10 NW 0,0
16.06.2018 19:00:00 22,9 11,3 22,3 22,8 17,5 6 3 18 10 W 0,0
16.06.2018 18:00:00 24,9 10,4 25,5 22,7 17,5 10 5 23 12 NE 0,0
16.06.2018 17:00:00 23,5 10,5 24,0 22,5 17,5 7 4 31 17 E 0,0
16.06.2018 16:00:00 24,4 9,9 24,5 22,1 17,5 9 5 24 13 E 0,0
16.06.2018 15:00:00 24,8 11,4 25,9 21,7 17,5 10 5 26 14 S 0,0
16.06.2018 14:00:00 24,4 11,0 27,4 21,3 17,5 9 5 23 12 S 0,0
16.06.2018 13:00:00 23,9 9,8 25,8 20,9 17,5 6 3 15 8 SSW 0,0
16.06.2018 12:00:00 22,8 9,9 23,3 20,6 17,5 6 3 13 7 SSW 0,0
16.06.2018 11:00:00 19,9 9,5 22,6 20,5 17,5 4 2 10 6 SW 0,0
16.06.2018 10:00:00 18,2 9,5 18,1 20,5 17,5 0 0 7 4 N 0,0
16.06.2018 09:00:00 15,6 9,9 15,1 20,6 17,5 3 2 8 4 S 0,0
16.06.2018 08:00:00 13,4 9,8 12,4 20,8 17,5 0 0 5 3 N 0,0
16.06.2018 07:00:00 11,7 9,3 9,8 21,0 17,5 0 0 6 3 N 0,0
16.06.2018 06:00:00 11,3 8,7 9,3 21,2 17,5 0 0 5 3 N 0,0
16.06.2018 05:00:00 11,6 8,6 10,0 21,5 17,5 2 1 6 3 SW 0,0
16.06.2018 04:00:00 12,8 9,1 11,2 21,7 17,5 3 2 9 5 NNW 0,0
16.06.2018 03:00:00 13,6 8,8 11,5 21,9 17,5 3 2 6 3 NNW 0,0
16.06.2018 02:00:00 14,7 9,3 12,6 22,1 17,5 3 2 13 7 W 0,0
16.06.2018 01:00:00 16,6 9,5 15,3 22,3 17,5 3 1 7 4 WNW 0,0
16.06.2018 00:00:00 16,9 10,3 16,0 22,4 17,5 3 2 9 5 W 0,0
15.06.2018 23:00:00 17,2 10,1 15,9 22,6 17,5 5 3 8 5 WNW 0,0
15.06.2018 22:00:00 18,2 10,8 17,2 22,7 17,5 4 2 8 4 WNW 0,0
15.06.2018 21:00:00 19,5 10,2 18,5 22,7 17,5 3 2 14 7 WNW 0,0
15.06.2018 20:00:00 21,0 10,5 20,2 22,6 17,5 4 2 13 7 W 0,0
15.06.2018 19:00:00 24,0 11,7 24,8 22,5 17,5 4 2 14 8 SW 0,0
15.06.2018 18:00:00 24,4 11,0 24,7 22,2 17,5 6 3 24 13 SW 0,0
15.06.2018 17:00:00 24,7 10,9 24,1 21,8 17,5 9 5 28 15 S 0,0
15.06.2018 16:00:00 24,2 10,5 24,7 21,4 17,5 9 5 29 16 SSE 0,0
15.06.2018 15:00:00 23,3 9,3 26,7 20,9 17,5 11 6 24 13 SSE 0,0
15.06.2018 14:00:00 22,2 9,0 26,7 20,5 17,5 12 6 27 14 SSE 0,0
15.06.2018 13:00:00 22,4 9,9 25,4 20,1 17,5 8 5 24 13 SSW 0,0
15.06.2018 12:00:00 21,3 9,5 25,9 19,8 17,5 6 3 16 9 S 0,0
15.06.2018 11:00:00 19,6 9,8 24,3 19,7 17,5 6 3 13 7 S 0,0
15.06.2018 10:00:00 17,1 10,7 17,3 19,6 17,5 5 3 14 7 S 0,0
15.06.2018 09:00:00 16,0 10,1 19,0 19,7 17,5 4 2 9 5 S 0,0
15.06.2018 08:00:00 14,2 10,6 13,0 19,8 17,5 5 3 9 5 SSE 0,0
15.06.2018 07:00:00 12,8 10,5 11,9 19,9 17,5 0 0 3 1 N 0,0
15.06.2018 06:00:00 12,6 10,1 11,5 20,1 17,5 0 0 5 3 N 0,0
15.06.2018 05:00:00 12,8 10,0 11,8 20,2 17,5 0 0 5 3 N 0,0
15.06.2018 04:00:00 13,0 9,8 12,2 20,4 17,5 2 1 3 2 NNW 0,0
15.06.2018 03:00:00 13,0 9,8 12,2 20,6 17,5 0 0 4 2 N 0,0
15.06.2018 02:00:00 12,9 9,3 11,3 20,7 17,5 2 1 5 3 NW 0,0
15.06.2018 01:00:00 13,4 9,4 11,8 20,9 17,5 0 0 14 8 N 0,0

tt = Température de l'air
td = dewpoint
tt 5cm = Température de l'air 5cm
tt -20cm = Température de l'air -20cm
tt -100cm = Température de l'air -100cm
ff = Vitesse du vent
fx = gusts
dd = Direction du vent
rr = Quantités de précipitations

stations d'obs. à proximité